sensor_id;sensor_type;location;lat;lon;timestamp;P1;durP1;ratioP1;P2;durP2;ratioP2
16117;SDS011;8163;50.118;5.342;2022-12-19T00:00:42;15.05;;;8.93;;
16117;SDS011;8163;50.118;5.342;2022-12-19T00:03:11;12.63;;;7.82;;
16117;SDS011;8163;50.118;5.342;2022-12-19T00:05:38;13.73;;;9.20;;
16117;SDS011;8163;50.118;5.342;2022-12-19T00:08:08;16.33;;;9.80;;
16117;SDS011;8163;50.118;5.342;2022-12-19T00:10:40;11.55;;;7.20;;
16117;SDS011;8163;50.118;5.342;2022-12-19T00:13:07;12.35;;;7.72;;
16117;SDS011;8163;50.118;5.342;2022-12-19T00:15:34;14.00;;;8.98;;
16117;SDS011;8163;50.118;5.342;2022-12-19T00:18:02;15.80;;;9.15;;
16117;SDS011;8163;50.118;5.342;2022-12-19T00:20:30;16.20;;;9.23;;
16117;SDS011;8163;50.118;5.342;2022-12-19T00:22:57;15.15;;;8.73;;
16117;SDS011;8163;50.118;5.342;2022-12-19T00:25:24;14.35;;;8.73;;
16117;SDS011;8163;50.118;5.342;2022-12-19T00:27:51;13.65;;;6.63;;
16117;SDS011;8163;50.118;5.342;2022-12-19T00:30:18;13.93;;;8.02;;
16117;SDS011;8163;50.118;5.342;2022-12-19T00:32:45;7.90;;;6.38;;
16117;SDS011;8163;50.118;5.342;2022-12-19T00:35:13;12.07;;;7.40;;
16117;SDS011;8163;50.118;5.342;2022-12-19T00:37:41;12.57;;;9.18;;
16117;SDS011;8163;50.118;5.342;2022-12-19T00:40:09;9.90;;;6.22;;
16117;SDS011;8163;50.118;5.342;2022-12-19T00:42:36;14.10;;;8.95;;
16117;SDS011;8163;50.118;5.342;2022-12-19T00:45:03;13.23;;;9.65;;
16117;SDS011;8163;50.118;5.342;2022-12-19T00:47:31;14.43;;;9.52;;
16117;SDS011;8163;50.118;5.342;2022-12-19T00:49:58;14.45;;;9.07;;
16117;SDS011;8163;50.118;5.342;2022-12-19T00:52:25;13.07;;;9.55;;
16117;SDS011;8163;50.118;5.342;2022-12-19T00:54:54;13.50;;;9.20;;
16117;SDS011;8163;50.118;5.342;2022-12-19T00:57:20;12.73;;;8.00;;
16117;SDS011;8163;50.118;5.342;2022-12-19T00:59:47;12.95;;;8.88;;
16117;SDS011;8163;50.118;5.342;2022-12-19T01:02:14;12.98;;;7.45;;
16117;SDS011;8163;50.118;5.342;2022-12-19T01:04:42;12.90;;;8.55;;
16117;SDS011;8163;50.118;5.342;2022-12-19T01:07:09;11.65;;;7.80;;
16117;SDS011;8163;50.118;5.342;2022-12-19T01:09:36;10.45;;;7.88;;
16117;SDS011;8163;50.118;5.342;2022-12-19T01:12:05;10.60;;;7.57;;
16117;SDS011;8163;50.118;5.342;2022-12-19T01:14:50;9.43;;;6.70;;
16117;SDS011;8163;50.118;5.342;2022-12-19T01:17:18;16.42;;;8.43;;
16117;SDS011;8163;50.118;5.342;2022-12-19T01:19:45;12.50;;;9.35;;
16117;SDS011;8163;50.118;5.342;2022-12-19T01:22:12;15.02;;;8.73;;
16117;SDS011;8163;50.118;5.342;2022-12-19T01:24:39;14.70;;;9.45;;
16117;SDS011;8163;50.118;5.342;2022-12-19T01:27:08;12.80;;;7.82;;
16117;SDS011;8163;50.118;5.342;2022-12-19T01:29:35;13.35;;;7.97;;
16117;SDS011;8163;50.118;5.342;2022-12-19T01:32:02;14.05;;;8.73;;
16117;SDS011;8163;50.118;5.342;2022-12-19T01:34:29;14.23;;;8.68;;
16117;SDS011;8163;50.118;5.342;2022-12-19T01:36:56;12.88;;;7.55;;
16117;SDS011;8163;50.118;5.342;2022-12-19T01:39:23;14.57;;;7.95;;
16117;SDS011;8163;50.118;5.342;2022-12-19T01:41:50;12.98;;;8.93;;
16117;SDS011;8163;50.118;5.342;2022-12-19T01:44:18;22.58;;;8.48;;
16117;SDS011;8163;50.118;5.342;2022-12-19T01:46:49;14.63;;;9.30;;
16117;SDS011;8163;50.118;5.342;2022-12-19T01:49:24;12.02;;;9.10;;
16117;SDS011;8163;50.118;5.342;2022-12-19T01:51:57;11.48;;;8.07;;
16117;SDS011;8163;50.118;5.342;2022-12-19T01:54:27;12.38;;;7.25;;
16117;SDS011;8163;50.118;5.342;2022-12-19T01:56:57;13.20;;;6.97;;
16117;SDS011;8163;50.118;5.342;2022-12-19T01:59:28;14.07;;;9.25;;
16117;SDS011;8163;50.118;5.342;2022-12-19T02:01:59;13.93;;;8.38;;
16117;SDS011;8163;50.118;5.342;2022-12-19T02:04:32;11.85;;;8.23;;
16117;SDS011;8163;50.118;5.342;2022-12-19T02:07:00;12.15;;;7.78;;
16117;SDS011;8163;50.118;5.342;2022-12-19T02:09:29;8.50;;;6.55;;
16117;SDS011;8163;50.118;5.342;2022-12-19T02:11:57;18.00;;;11.82;;
16117;SDS011;8163;50.118;5.342;2022-12-19T02:14:25;9.02;;;6.47;;
16117;SDS011;8163;50.118;5.342;2022-12-19T02:16:56;13.00;;;8.73;;
16117;SDS011;8163;50.118;5.342;2022-12-19T02:19:38;9.93;;;7.32;;
16117;SDS011;8163;50.118;5.342;2022-12-19T02:22:33;13.35;;;9.27;;
16117;SDS011;8163;50.118;5.342;2022-12-19T02:25:14;9.77;;;7.00;;
16117;SDS011;8163;50.118;5.342;2022-12-19T02:28:04;16.13;;;9.63;;
16117;SDS011;8163;50.118;5.342;2022-12-19T02:30:59;12.90;;;8.75;;
16117;SDS011;8163;50.118;5.342;2022-12-19T02:33:33;9.57;;;6.43;;
16117;SDS011;8163;50.118;5.342;2022-12-19T02:36:06;12.52;;;8.02;;
16117;SDS011;8163;50.118;5.342;2022-12-19T02:38:40;10.40;;;6.75;;
16117;SDS011;8163;50.118;5.342;2022-12-19T02:41:14;13.40;;;9.52;;
16117;SDS011;8163;50.118;5.342;2022-12-19T02:43:47;12.43;;;7.63;;
16117;SDS011;8163;50.118;5.342;2022-12-19T02:46:18;9.57;;;6.43;;
16117;SDS011;8163;50.118;5.342;2022-12-19T02:48:47;11.45;;;7.68;;
16117;SDS011;8163;50.118;5.342;2022-12-19T02:51:14;8.35;;;6.22;;
16117;SDS011;8163;50.118;5.342;2022-12-19T02:53:41;12.40;;;7.50;;
16117;SDS011;8163;50.118;5.342;2022-12-19T02:56:16;11.15;;;8.02;;
16117;SDS011;8163;50.118;5.342;2022-12-19T02:58:56;16.38;;;8.38;;
16117;SDS011;8163;50.118;5.342;2022-12-19T03:01:41;11.93;;;8.60;;
16117;SDS011;8163;50.118;5.342;2022-12-19T03:04:17;10.90;;;8.00;;
16117;SDS011;8163;50.118;5.342;2022-12-19T03:06:52;9.40;;;6.18;;
16117;SDS011;8163;50.118;5.342;2022-12-19T03:09:25;11.95;;;6.95;;
16117;SDS011;8163;50.118;5.342;2022-12-19T03:12:01;12.10;;;8.52;;
16117;SDS011;8163;50.118;5.342;2022-12-19T03:14:32;9.40;;;7.10;;
16117;SDS011;8163;50.118;5.342;2022-12-19T03:17:05;10.35;;;7.82;;
16117;SDS011;8163;50.118;5.342;2022-12-19T03:19:33;8.07;;;6.40;;
16117;SDS011;8163;50.118;5.342;2022-12-19T03:22:03;7.75;;;6.18;;
16117;SDS011;8163;50.118;5.342;2022-12-19T03:24:30;7.90;;;5.10;;
16117;SDS011;8163;50.118;5.342;2022-12-19T03:26:58;4.70;;;4.30;;
16117;SDS011;8163;50.118;5.342;2022-12-19T03:29:29;6.97;;;5.35;;
16117;SDS011;8163;50.118;5.342;2022-12-19T03:31:59;7.90;;;5.85;;
16117;SDS011;8163;50.118;5.342;2022-12-19T03:34:32;7.20;;;5.88;;
16117;SDS011;8163;50.118;5.342;2022-12-19T03:37:04;7.10;;;5.82;;
16117;SDS011;8163;50.118;5.342;2022-12-19T03:39:35;6.97;;;6.00;;
16117;SDS011;8163;50.118;5.342;2022-12-19T03:42:03;9.77;;;7.43;;
16117;SDS011;8163;50.118;5.342;2022-12-19T03:44:49;6.88;;;5.38;;
16117;SDS011;8163;50.118;5.342;2022-12-19T03:47:20;7.30;;;5.88;;
16117;SDS011;8163;50.118;5.342;2022-12-19T03:49:53;7.70;;;4.68;;
16117;SDS011;8163;50.118;5.342;2022-12-19T03:52:23;5.65;;;4.90;;
16117;SDS011;8163;50.118;5.342;2022-12-19T03:54:54;8.60;;;6.25;;
16117;SDS011;8163;50.118;5.342;2022-12-19T03:57:32;5.20;;;4.47;;
16117;SDS011;8163;50.118;5.342;2022-12-19T04:00:05;6.03;;;5.45;;
16117;SDS011;8163;50.118;5.342;2022-12-19T04:02:36;7.18;;;5.15;;
16117;SDS011;8163;50.118;5.342;2022-12-19T04:05:06;6.88;;;5.80;;
16117;SDS011;8163;50.118;5.342;2022-12-19T04:07:35;5.32;;;4.82;;
16117;SDS011;8163;50.118;5.342;2022-12-19T04:10:04;5.88;;;5.20;;
16117;SDS011;8163;50.118;5.342;2022-12-19T04:12:35;4.25;;;3.85;;
16117;SDS011;8163;50.118;5.342;2022-12-19T04:15:06;4.18;;;3.65;;
16117;SDS011;8163;50.118;5.342;2022-12-19T04:17:36;5.78;;;5.18;;
16117;SDS011;8163;50.118;5.342;2022-12-19T04:20:09;5.40;;;4.18;;
16117;SDS011;8163;50.118;5.342;2022-12-19T04:22:39;4.85;;;3.83;;
16117;SDS011;8163;50.118;5.342;2022-12-19T04:25:09;5.10;;;4.20;;
16117;SDS011;8163;50.118;5.342;2022-12-19T04:27:39;6.20;;;5.38;;
16117;SDS011;8163;50.118;5.342;2022-12-19T04:30:11;4.47;;;3.80;;
16117;SDS011;8163;50.118;5.342;2022-12-19T04:32:43;5.03;;;4.20;;
16117;SDS011;8163;50.118;5.342;2022-12-19T04:35:12;6.20;;;5.13;;
16117;SDS011;8163;50.118;5.342;2022-12-19T04:37:39;6.10;;;3.88;;
16117;SDS011;8163;50.118;5.342;2022-12-19T04:40:07;6.82;;;5.28;;
16117;SDS011;8163;50.118;5.342;2022-12-19T04:42:35;5.75;;;4.30;;
16117;SDS011;8163;50.118;5.342;2022-12-19T04:45:02;7.43;;;5.57;;
16117;SDS011;8163;50.118;5.342;2022-12-19T04:47:30;7.10;;;5.60;;
16117;SDS011;8163;50.118;5.342;2022-12-19T04:49:57;6.13;;;5.13;;
16117;SDS011;8163;50.118;5.342;2022-12-19T04:52:26;9.63;;;6.07;;
16117;SDS011;8163;50.118;5.342;2022-12-19T04:54:53;6.72;;;5.57;;
16117;SDS011;8163;50.118;5.342;2022-12-19T04:57:20;5.50;;;4.22;;
16117;SDS011;8163;50.118;5.342;2022-12-19T04:59:47;7.63;;;5.63;;
16117;SDS011;8163;50.118;5.342;2022-12-19T05:02:14;5.03;;;4.13;;
16117;SDS011;8163;50.118;5.342;2022-12-19T05:04:41;6.00;;;5.13;;
16117;SDS011;8163;50.118;5.342;2022-12-19T05:07:08;5.85;;;4.22;;
16117;SDS011;8163;50.118;5.342;2022-12-19T05:09:37;5.20;;;4.68;;
16117;SDS011;8163;50.118;5.342;2022-12-19T05:12:04;5.07;;;4.57;;
16117;SDS011;8163;50.118;5.342;2022-12-19T05:14:32;5.72;;;4.32;;
16117;SDS011;8163;50.118;5.342;2022-12-19T05:16:59;4.93;;;3.90;;
16117;SDS011;8163;50.118;5.342;2022-12-19T05:19:26;7.20;;;5.00;;
16117;SDS011;8163;50.118;5.342;2022-12-19T05:21:53;5.85;;;4.35;;
16117;SDS011;8163;50.118;5.342;2022-12-19T05:24:20;7.00;;;4.60;;
16117;SDS011;8163;50.118;5.342;2022-12-19T05:26:49;6.10;;;5.30;;
16117;SDS011;8163;50.118;5.342;2022-12-19T05:29:16;4.15;;;3.25;;
16117;SDS011;8163;50.118;5.342;2022-12-19T05:31:43;7.35;;;5.32;;
16117;SDS011;8163;50.118;5.342;2022-12-19T05:34:10;5.18;;;4.43;;
16117;SDS011;8163;50.118;5.342;2022-12-19T05:36:37;7.68;;;5.30;;
16117;SDS011;8163;50.118;5.342;2022-12-19T05:39:04;7.07;;;5.50;;
16117;SDS011;8163;50.118;5.342;2022-12-19T05:41:32;7.03;;;5.03;;
16117;SDS011;8163;50.118;5.342;2022-12-19T05:44:00;7.20;;;5.28;;
16117;SDS011;8163;50.118;5.342;2022-12-19T05:46:27;6.05;;;4.72;;
16117;SDS011;8163;50.118;5.342;2022-12-19T05:48:54;6.82;;;5.05;;
16117;SDS011;8163;50.118;5.342;2022-12-19T05:51:21;7.70;;;5.57;;
16117;SDS011;8163;50.118;5.342;2022-12-19T05:53:49;7.60;;;5.45;;
16117;SDS011;8163;50.118;5.342;2022-12-19T05:56:17;6.13;;;5.38;;
16117;SDS011;8163;50.118;5.342;2022-12-19T05:58:45;9.73;;;6.97;;
16117;SDS011;8163;50.118;5.342;2022-12-19T06:01:15;7.75;;;5.68;;
16117;SDS011;8163;50.118;5.342;2022-12-19T06:03:43;6.55;;;5.22;;
16117;SDS011;8163;50.118;5.342;2022-12-19T06:06:11;8.88;;;5.55;;
16117;SDS011;8163;50.118;5.342;2022-12-19T06:08:39;12.55;;;6.68;;
16117;SDS011;8163;50.118;5.342;2022-12-19T06:11:07;6.85;;;5.38;;
16117;SDS011;8163;50.118;5.342;2022-12-19T06:13:36;8.85;;;5.75;;
16117;SDS011;8163;50.118;5.342;2022-12-19T06:16:04;6.55;;;5.72;;
16117;SDS011;8163;50.118;5.342;2022-12-19T06:18:34;11.55;;;6.85;;
16117;SDS011;8163;50.118;5.342;2022-12-19T06:21:02;7.32;;;5.57;;
16117;SDS011;8163;50.118;5.342;2022-12-19T06:23:31;6.80;;;4.85;;
16117;SDS011;8163;50.118;5.342;2022-12-19T06:26:00;8.57;;;5.53;;
16117;SDS011;8163;50.118;5.342;2022-12-19T06:28:28;6.07;;;4.78;;
16117;SDS011;8163;50.118;5.342;2022-12-19T06:30:56;8.80;;;6.65;;
16117;SDS011;8163;50.118;5.342;2022-12-19T06:33:24;4.60;;;3.90;;
16117;SDS011;8163;50.118;5.342;2022-12-19T06:35:57;8.80;;;5.72;;
16117;SDS011;8163;50.118;5.342;2022-12-19T06:38:25;8.02;;;5.57;;
16117;SDS011;8163;50.118;5.342;2022-12-19T06:40:52;9.25;;;5.63;;
16117;SDS011;8163;50.118;5.342;2022-12-19T06:43:37;9.18;;;5.97;;
16117;SDS011;8163;50.118;5.342;2022-12-19T06:46:04;6.25;;;5.10;;
16117;SDS011;8163;50.118;5.342;2022-12-19T06:48:31;8.48;;;6.65;;
16117;SDS011;8163;50.118;5.342;2022-12-19T06:51:00;5.55;;;5.00;;
16117;SDS011;8163;50.118;5.342;2022-12-19T06:53:27;8.95;;;6.53;;
16117;SDS011;8163;50.118;5.342;2022-12-19T06:55:55;13.70;;;5.38;;
16117;SDS011;8163;50.118;5.342;2022-12-19T06:58:24;4.45;;;4.05;;
16117;SDS011;8163;50.118;5.342;2022-12-19T07:00:51;10.73;;;5.25;;
16117;SDS011;8163;50.118;5.342;2022-12-19T07:03:20;7.53;;;5.82;;
16117;SDS011;8163;50.118;5.342;2022-12-19T07:05:50;7.88;;;5.35;;
16117;SDS011;8163;50.118;5.342;2022-12-19T07:08:19;8.73;;;5.22;;
16117;SDS011;8163;50.118;5.342;2022-12-19T07:10:46;10.27;;;6.00;;
16117;SDS011;8163;50.118;5.342;2022-12-19T07:13:14;8.63;;;5.95;;
16117;SDS011;8163;50.118;5.342;2022-12-19T07:15:41;7.57;;;4.90;;
16117;SDS011;8163;50.118;5.342;2022-12-19T07:18:08;7.13;;;5.60;;
16117;SDS011;8163;50.118;5.342;2022-12-19T07:20:36;7.90;;;6.13;;
16117;SDS011;8163;50.118;5.342;2022-12-19T07:23:06;6.40;;;5.20;;
16117;SDS011;8163;50.118;5.342;2022-12-19T07:25:37;8.55;;;5.53;;
16117;SDS011;8163;50.118;5.342;2022-12-19T07:28:04;4.88;;;4.32;;
16117;SDS011;8163;50.118;5.342;2022-12-19T07:30:32;10.48;;;5.22;;
16117;SDS011;8163;50.118;5.342;2022-12-19T07:32:59;7.90;;;6.32;;
16117;SDS011;8163;50.118;5.342;2022-12-19T07:35:26;8.52;;;6.13;;
16117;SDS011;8163;50.118;5.342;2022-12-19T07:37:53;8.20;;;6.10;;
16117;SDS011;8163;50.118;5.342;2022-12-19T07:40:26;4.97;;;4.43;;
16117;SDS011;8163;50.118;5.342;2022-12-19T07:42:57;8.90;;;5.20;;
16117;SDS011;8163;50.118;5.342;2022-12-19T07:45:24;7.80;;;5.28;;
16117;SDS011;8163;50.118;5.342;2022-12-19T07:47:51;6.70;;;4.72;;
16117;SDS011;8163;50.118;5.342;2022-12-19T07:50:19;6.80;;;5.20;;
16117;SDS011;8163;50.118;5.342;2022-12-19T07:52:46;8.10;;;6.07;;
16117;SDS011;8163;50.118;5.342;2022-12-19T07:55:13;6.18;;;5.22;;
16117;SDS011;8163;50.118;5.342;2022-12-19T07:57:40;5.15;;;4.35;;
16117;SDS011;8163;50.118;5.342;2022-12-19T08:00:09;7.63;;;4.68;;
16117;SDS011;8163;50.118;5.342;2022-12-19T08:02:37;9.57;;;5.13;;
16117;SDS011;8163;50.118;5.342;2022-12-19T08:05:04;6.35;;;4.20;;
16117;SDS011;8163;50.118;5.342;2022-12-19T08:07:32;7.22;;;5.88;;
16117;SDS011;8163;50.118;5.342;2022-12-19T08:09:59;6.55;;;4.97;;
16117;SDS011;8163;50.118;5.342;2022-12-19T08:12:26;6.20;;;4.28;;
16117;SDS011;8163;50.118;5.342;2022-12-19T08:14:53;4.70;;;3.67;;
16117;SDS011;8163;50.118;5.342;2022-12-19T08:17:21;6.05;;;4.25;;
16117;SDS011;8163;50.118;5.342;2022-12-19T08:19:48;7.97;;;4.97;;
16117;SDS011;8163;50.118;5.342;2022-12-19T08:22:15;7.07;;;5.05;;
16117;SDS011;8163;50.118;5.342;2022-12-19T08:24:42;3.58;;;3.28;;
16117;SDS011;8163;50.118;5.342;2022-12-19T08:27:09;9.20;;;4.50;;
16117;SDS011;8163;50.118;5.342;2022-12-19T08:29:36;7.15;;;4.18;;
16117;SDS011;8163;50.118;5.342;2022-12-19T08:32:03;4.07;;;3.67;;
16117;SDS011;8163;50.118;5.342;2022-12-19T08:34:32;6.20;;;4.10;;
16117;SDS011;8163;50.118;5.342;2022-12-19T08:37:00;6.35;;;4.20;;
16117;SDS011;8163;50.118;5.342;2022-12-19T08:39:27;3.92;;;3.63;;
16117;SDS011;8163;50.118;5.342;2022-12-19T08:41:54;4.30;;;3.78;;
16117;SDS011;8163;50.118;5.342;2022-12-19T08:44:21;7.30;;;3.92;;
16117;SDS011;8163;50.118;5.342;2022-12-19T08:46:48;6.43;;;3.72;;
16117;SDS011;8163;50.118;5.342;2022-12-19T08:49:15;6.05;;;3.63;;
16117;SDS011;8163;50.118;5.342;2022-12-19T08:51:44;3.72;;;2.90;;
16117;SDS011;8163;50.118;5.342;2022-12-19T08:54:11;4.95;;;3.72;;
16117;SDS011;8163;50.118;5.342;2022-12-19T08:56:38;3.75;;;3.20;;
16117;SDS011;8163;50.118;5.342;2022-12-19T08:59:05;5.80;;;3.75;;
16117;SDS011;8163;50.118;5.342;2022-12-19T09:01:32;3.05;;;2.75;;
16117;SDS011;8163;50.118;5.342;2022-12-19T09:03:59;3.72;;;3.05;;
16117;SDS011;8163;50.118;5.342;2022-12-19T09:06:26;6.70;;;3.30;;
16117;SDS011;8163;50.118;5.342;2022-12-19T09:08:55;3.38;;;3.08;;
16117;SDS011;8163;50.118;5.342;2022-12-19T09:11:22;5.10;;;3.13;;
16117;SDS011;8163;50.118;5.342;2022-12-19T09:13:49;6.15;;;3.58;;
16117;SDS011;8163;50.118;5.342;2022-12-19T09:16:17;4.22;;;2.75;;
16117;SDS011;8163;50.118;5.342;2022-12-19T09:18:47;4.47;;;2.70;;
16117;SDS011;8163;50.118;5.342;2022-12-19T09:21:16;2.45;;;2.25;;
16117;SDS011;8163;50.118;5.342;2022-12-19T09:23:46;3.08;;;2.75;;
16117;SDS011;8163;50.118;5.342;2022-12-19T09:26:15;2.85;;;2.35;;
16117;SDS011;8163;50.118;5.342;2022-12-19T09:28:44;2.42;;;2.22;;
16117;SDS011;8163;50.118;5.342;2022-12-19T09:31:13;3.58;;;3.28;;
16117;SDS011;8163;50.118;5.342;2022-12-19T09:33:41;2.47;;;2.25;;
16117;SDS011;8163;50.118;5.342;2022-12-19T09:36:11;3.47;;;2.63;;
16117;SDS011;8163;50.118;5.342;2022-12-19T09:38:39;3.97;;;2.80;;
16117;SDS011;8163;50.118;5.342;2022-12-19T09:41:19;8.70;;;5.18;;
16117;SDS011;8163;50.118;5.342;2022-12-19T09:44:10;2.60;;;2.40;;
16117;SDS011;8163;50.118;5.342;2022-12-19T09:46:50;3.08;;;2.83;;
16117;SDS011;8163;50.118;5.342;2022-12-19T09:49:21;3.22;;;2.13;;
16117;SDS011;8163;50.118;5.342;2022-12-19T09:51:52;8.32;;;2.88;;
16117;SDS011;8163;50.118;5.342;2022-12-19T09:54:25;5.50;;;2.75;;
16117;SDS011;8163;50.118;5.342;2022-12-19T09:56:59;3.25;;;2.55;;
16117;SDS011;8163;50.118;5.342;2022-12-19T09:59:34;5.60;;;2.83;;
16117;SDS011;8163;50.118;5.342;2022-12-19T10:02:13;3.83;;;2.78;;
16117;SDS011;8163;50.118;5.342;2022-12-19T10:04:54;3.45;;;3.05;;
16117;SDS011;8163;50.118;5.342;2022-12-19T10:07:29;3.47;;;2.67;;
16117;SDS011;8163;50.118;5.342;2022-12-19T10:09:57;4.30;;;2.78;;
16117;SDS011;8163;50.118;5.342;2022-12-19T10:12:45;6.90;;;3.45;;
16117;SDS011;8163;50.118;5.342;2022-12-19T10:15:27;4.82;;;2.90;;
16117;SDS011;8163;50.118;5.342;2022-12-19T10:18:03;3.70;;;3.30;;
16117;SDS011;8163;50.118;5.342;2022-12-19T10:20:44;5.05;;;2.70;;
16117;SDS011;8163;50.118;5.342;2022-12-19T10:23:20;4.45;;;3.00;;
16117;SDS011;8163;50.118;5.342;2022-12-19T10:26:08;6.32;;;3.30;;
16117;SDS011;8163;50.118;5.342;2022-12-19T10:28:48;3.63;;;3.00;;
16117;SDS011;8163;50.118;5.342;2022-12-19T10:31:31;3.05;;;2.85;;
16117;SDS011;8163;50.118;5.342;2022-12-19T10:34:05;3.25;;;2.97;;
16117;SDS011;8163;50.118;5.342;2022-12-19T10:36:42;3.35;;;2.35;;
16117;SDS011;8163;50.118;5.342;2022-12-19T10:39:11;4.45;;;3.00;;
16117;SDS011;8163;50.118;5.342;2022-12-19T10:41:50;2.90;;;2.60;;
16117;SDS011;8163;50.118;5.342;2022-12-19T10:44:23;4.07;;;3.65;;
16117;SDS011;8163;50.118;5.342;2022-12-19T10:46:55;5.03;;;2.85;;
16117;SDS011;8163;50.118;5.342;2022-12-19T10:49:24;3.63;;;2.83;;
16117;SDS011;8163;50.118;5.342;2022-12-19T10:51:56;3.00;;;2.65;;
16117;SDS011;8163;50.118;5.342;2022-12-19T10:54:24;3.25;;;2.70;;
16117;SDS011;8163;50.118;5.342;2022-12-19T10:56:51;3.17;;;2.63;;
16117;SDS011;8163;50.118;5.342;2022-12-19T10:59:20;2.95;;;2.63;;
16117;SDS011;8163;50.118;5.342;2022-12-19T11:01:50;3.58;;;2.40;;
16117;SDS011;8163;50.118;5.342;2022-12-19T11:04:20;3.63;;;2.83;;
16117;SDS011;8163;50.118;5.342;2022-12-19T11:07:03;4.13;;;2.28;;
16117;SDS011;8163;50.118;5.342;2022-12-19T11:09:35;3.72;;;2.70;;
16117;SDS011;8163;50.118;5.342;2022-12-19T11:12:11;2.92;;;2.70;;
16117;SDS011;8163;50.118;5.342;2022-12-19T11:14:40;4.45;;;2.72;;
16117;SDS011;8163;50.118;5.342;2022-12-19T11:17:26;3.35;;;3.05;;
16117;SDS011;8163;50.118;5.342;2022-12-19T11:20:09;5.03;;;2.75;;
16117;SDS011;8163;50.118;5.342;2022-12-19T11:22:38;3.08;;;2.78;;
16117;SDS011;8163;50.118;5.342;2022-12-19T11:25:14;2.80;;;2.50;;
16117;SDS011;8163;50.118;5.342;2022-12-19T11:27:43;4.05;;;2.80;;
16117;SDS011;8163;50.118;5.342;2022-12-19T11:30:18;3.20;;;2.70;;
16117;SDS011;8163;50.118;5.342;2022-12-19T11:32:49;2.25;;;2.05;;
16117;SDS011;8163;50.118;5.342;2022-12-19T11:35:35;2.50;;;2.30;;
16117;SDS011;8163;50.118;5.342;2022-12-19T11:38:12;3.75;;;2.33;;
16117;SDS011;8163;50.118;5.342;2022-12-19T11:40:43;5.65;;;2.80;;
16117;SDS011;8163;50.118;5.342;2022-12-19T11:43:14;2.92;;;2.63;;
16117;SDS011;8163;50.118;5.342;2022-12-19T11:45:47;3.30;;;2.42;;
16117;SDS011;8163;50.118;5.342;2022-12-19T11:48:25;2.60;;;2.40;;
16117;SDS011;8163;50.118;5.342;2022-12-19T11:51:05;3.50;;;2.70;;
16117;SDS011;8163;50.118;5.342;2022-12-19T11:53:43;6.55;;;2.67;;
16117;SDS011;8163;50.118;5.342;2022-12-19T11:56:19;2.53;;;2.33;;
16117;SDS011;8163;50.118;5.342;2022-12-19T11:58:50;2.75;;;2.13;;
16117;SDS011;8163;50.118;5.342;2022-12-19T12:01:22;4.80;;;2.78;;
16117;SDS011;8163;50.118;5.342;2022-12-19T12:04:07;2.50;;;2.30;;
16117;SDS011;8163;50.118;5.342;2022-12-19T12:06:47;2.97;;;2.55;;
16117;SDS011;8163;50.118;5.342;2022-12-19T12:09:17;4.03;;;2.55;;
16117;SDS011;8163;50.118;5.342;2022-12-19T12:11:53;3.92;;;3.00;;
16117;SDS011;8163;50.118;5.342;2022-12-19T12:14:29;4.57;;;2.65;;
16117;SDS011;8163;50.118;5.342;2022-12-19T12:17:08;2.33;;;2.13;;
16117;SDS011;8163;50.118;5.342;2022-12-19T12:19:55;4.28;;;2.80;;
16117;SDS011;8163;50.118;5.342;2022-12-19T12:22:42;3.33;;;2.58;;
16117;SDS011;8163;50.118;5.342;2022-12-19T12:25:27;3.30;;;2.33;;
16117;SDS011;8163;50.118;5.342;2022-12-19T12:28:08;4.05;;;2.40;;
16117;SDS011;8163;50.118;5.342;2022-12-19T12:30:55;2.83;;;2.35;;
16117;SDS011;8163;50.118;5.342;2022-12-19T12:33:35;5.07;;;2.80;;
16117;SDS011;8163;50.118;5.342;2022-12-19T12:36:09;2.70;;;2.50;;
16117;SDS011;8163;50.118;5.342;2022-12-19T12:38:48;3.17;;;2.38;;
16117;SDS011;8163;50.118;5.342;2022-12-19T12:41:29;2.25;;;2.05;;
16117;SDS011;8163;50.118;5.342;2022-12-19T12:44:22;3.03;;;2.35;;
16117;SDS011;8163;50.118;5.342;2022-12-19T12:46:50;2.55;;;2.08;;
16117;SDS011;8163;50.118;5.342;2022-12-19T12:49:32;2.72;;;2.25;;
16117;SDS011;8163;50.118;5.342;2022-12-19T12:52:04;3.33;;;2.17;;
16117;SDS011;8163;50.118;5.342;2022-12-19T12:54:35;2.28;;;2.08;;
16117;SDS011;8163;50.118;5.342;2022-12-19T12:57:05;2.33;;;2.13;;
16117;SDS011;8163;50.118;5.342;2022-12-19T12:59:45;5.40;;;2.30;;
16117;SDS011;8163;50.118;5.342;2022-12-19T13:02:14;2.85;;;1.83;;
16117;SDS011;8163;50.118;5.342;2022-12-19T13:04:53;1.95;;;1.70;;
16117;SDS011;8163;50.118;5.342;2022-12-19T13:07:28;2.63;;;2.10;;
16117;SDS011;8163;50.118;5.342;2022-12-19T13:10:17;3.47;;;2.22;;
16117;SDS011;8163;50.118;5.342;2022-12-19T13:12:53;4.15;;;3.15;;
16117;SDS011;8163;50.118;5.342;2022-12-19T13:15:34;2.47;;;2.00;;
16117;SDS011;8163;50.118;5.342;2022-12-19T13:18:28;2.25;;;2.05;;
16117;SDS011;8163;50.118;5.342;2022-12-19T13:20:58;1.98;;;1.88;;
16117;SDS011;8163;50.118;5.342;2022-12-19T13:26:47;2.72;;;1.98;;
16117;SDS011;8163;50.118;5.342;2022-12-19T13:29:29;3.38;;;2.20;;
16117;SDS011;8163;50.118;5.342;2022-12-19T13:32:14;2.47;;;2.22;;
16117;SDS011;8163;50.118;5.342;2022-12-19T13:34:49;2.42;;;2.15;;
16117;SDS011;8163;50.118;5.342;2022-12-19T13:37:26;2.53;;;2.00;;
16117;SDS011;8163;50.118;5.342;2022-12-19T13:39:59;2.40;;;2.20;;
16117;SDS011;8163;50.118;5.342;2022-12-19T13:42:33;2.45;;;2.17;;
16117;SDS011;8163;50.118;5.342;2022-12-19T13:45:21;1.95;;;1.83;;
16117;SDS011;8163;50.118;5.342;2022-12-19T13:47:51;1.75;;;1.65;;
16117;SDS011;8163;50.118;5.342;2022-12-19T13:50:24;2.78;;;1.70;;
16117;SDS011;8163;50.118;5.342;2022-12-19T13:52:55;2.20;;;2.00;;
16117;SDS011;8163;50.118;5.342;2022-12-19T13:55:23;2.30;;;2.10;;
16117;SDS011;8163;50.118;5.342;2022-12-19T13:57:54;2.10;;;1.83;;
16117;SDS011;8163;50.118;5.342;2022-12-19T14:36:34;1.75;;;1.65;;
16117;SDS011;8163;50.118;5.342;2022-12-19T14:39:04;2.35;;;1.90;;
16117;SDS011;8163;50.118;5.342;2022-12-19T14:41:34;1.92;;;1.80;;
16117;SDS011;8163;50.118;5.342;2022-12-19T14:44:21;1.58;;;1.48;;
16117;SDS011;8163;50.118;5.342;2022-12-19T14:46:58;3.47;;;1.60;;
16117;SDS011;8163;50.118;5.342;2022-12-19T14:49:30;1.88;;;1.58;;
16117;SDS011;8163;50.118;5.342;2022-12-19T14:52:03;1.88;;;1.75;;
16117;SDS011;8163;50.118;5.342;2022-12-19T14:57:54;2.33;;;1.77;;
16117;SDS011;8163;50.118;5.342;2022-12-19T15:00:23;1.98;;;1.77;;
16117;SDS011;8163;50.118;5.342;2022-12-19T15:02:55;3.85;;;3.35;;
16117;SDS011;8163;50.118;5.342;2022-12-19T15:05:25;5.97;;;3.42;;
16117;SDS011;8163;50.118;5.342;2022-12-19T15:07:55;17.05;;;10.65;;
16117;SDS011;8163;50.118;5.342;2022-12-19T15:10:24;2.78;;;2.58;;
16117;SDS011;8163;50.118;5.342;2022-12-19T15:12:57;2.03;;;1.83;;
16117;SDS011;8163;50.118;5.342;2022-12-19T15:15:43;2.55;;;1.98;;
16117;SDS011;8163;50.118;5.342;2022-12-19T15:18:23;2.58;;;1.85;;
16117;SDS011;8163;50.118;5.342;2022-12-19T15:20:53;5.13;;;1.73;;
16117;SDS011;8163;50.118;5.342;2022-12-19T15:23:22;3.97;;;1.65;;
16117;SDS011;8163;50.118;5.342;2022-12-19T15:25:50;2.40;;;2.00;;
16117;SDS011;8163;50.118;5.342;2022-12-19T15:28:20;2.22;;;2.00;;
16117;SDS011;8163;50.118;5.342;2022-12-19T15:30:49;1.63;;;1.52;;
16117;SDS011;8163;50.118;5.342;2022-12-19T15:33:20;2.28;;;2.05;;
16117;SDS011;8163;50.118;5.342;2022-12-19T15:35:47;1.77;;;1.45;;
16117;SDS011;8163;50.118;5.342;2022-12-19T15:38:14;1.80;;;1.58;;
16117;SDS011;8163;50.118;5.342;2022-12-19T15:40:43;2.28;;;1.50;;
16117;SDS011;8163;50.118;5.342;2022-12-19T15:43:12;2.22;;;1.90;;
16117;SDS011;8163;50.118;5.342;2022-12-19T15:45:42;2.10;;;1.90;;
16117;SDS011;8163;50.118;5.342;2022-12-19T15:48:12;2.03;;;1.92;;
16117;SDS011;8163;50.118;5.342;2022-12-19T15:50:42;1.95;;;1.52;;
16117;SDS011;8163;50.118;5.342;2022-12-19T15:53:16;1.75;;;1.65;;
16117;SDS011;8163;50.118;5.342;2022-12-19T15:55:47;2.60;;;2.17;;
16117;SDS011;8163;50.118;5.342;2022-12-19T15:58:14;2.30;;;1.80;;
16117;SDS011;8163;50.118;5.342;2022-12-19T16:00:45;2.72;;;1.83;;
16117;SDS011;8163;50.118;5.342;2022-12-19T16:03:15;4.30;;;1.90;;
16117;SDS011;8163;50.118;5.342;2022-12-19T16:05:42;2.53;;;1.80;;